createdAt,value
2023-04-20T00:02:36.000Z,16.52
2023-04-20T00:07:35.000Z,13.91
2023-04-20T00:12:35.000Z,14.21
2023-04-20T00:17:36.000Z,14.58
2023-04-20T00:22:35.000Z,13.82
2023-04-20T00:27:35.000Z,14.88
2023-04-20T00:32:36.000Z,15.04
2023-04-20T00:37:35.000Z,19.26
2023-04-20T00:42:35.000Z,17.18
2023-04-20T00:47:36.000Z,14.97
2023-04-20T00:52:35.000Z,15.05
2023-04-20T00:57:35.000Z,15.05
2023-04-20T01:02:36.000Z,17.35
2023-04-20T01:07:35.000Z,16.99
2023-04-20T01:12:35.000Z,18.82
2023-04-20T01:17:35.000Z,22.11
2023-04-20T01:22:35.000Z,18.87
2023-04-20T01:27:35.000Z,13.89
2023-04-20T01:32:35.000Z,14.47
2023-04-20T01:37:35.000Z,14.65
2023-04-20T01:42:35.000Z,15.44
2023-04-20T01:47:35.000Z,14.38
2023-04-20T01:52:36.000Z,15.31
2023-04-20T01:57:35.000Z,14.52
2023-04-20T02:02:36.000Z,15.8
2023-04-20T02:07:35.000Z,15.8
2023-04-20T02:12:36.000Z,20.64
2023-04-20T02:17:36.000Z,25.07
2023-04-20T02:22:36.000Z,16.08
2023-04-20T02:27:36.000Z,15.37
2023-04-20T02:32:35.000Z,17.14
2023-04-20T02:37:36.000Z,18.79
2023-04-20T02:42:35.000Z,17.34
2023-04-20T02:47:36.000Z,17.43
2023-04-20T02:52:36.000Z,17.47
2023-04-20T02:57:36.000Z,19.51
2023-04-20T03:02:36.000Z,20.97
2023-04-20T03:07:36.000Z,19.89
2023-04-20T03:12:36.000Z,18.93
2023-04-20T03:17:36.000Z,18.73
2023-04-20T03:22:36.000Z,18.73
2023-04-20T03:27:35.000Z,20.22
2023-04-20T03:32:36.000Z,19.76
2023-04-20T03:37:36.000Z,18.91
2023-04-20T03:42:35.000Z,18.57
2023-04-20T03:47:36.000Z,18.85
2023-04-20T03:52:35.000Z,18.69
2023-04-20T03:57:36.000Z,20.01
2023-04-20T04:02:35.000Z,20.82
2023-04-20T04:07:36.000Z,19.36
2023-04-20T04:12:35.000Z,19.23
2023-04-20T04:17:35.000Z,19.67
2023-04-20T04:22:37.000Z,20.01
2023-04-20T04:27:36.000Z,19.77
2023-04-20T04:32:35.000Z,19.45
2023-04-20T04:37:35.000Z,19.45
2023-04-20T04:42:36.000Z,20.43
2023-04-20T04:47:36.000Z,19.5
2023-04-20T04:52:35.000Z,19.76
2023-04-20T04:57:36.000Z,19.21
2023-04-20T05:02:36.000Z,19.76
2023-04-20T05:07:36.000Z,19.58
2023-04-20T05:12:35.000Z,18.98
2023-04-20T05:17:36.000Z,19.11
2023-04-20T05:22:36.000Z,19.28
2023-04-20T05:27:35.000Z,19.02
2023-04-20T05:32:35.000Z,18.4
2023-04-20T05:37:36.000Z,18.35
2023-04-20T05:42:36.000Z,16.76
2023-04-20T05:47:36.000Z,16.73
2023-04-20T05:52:35.000Z,16.73
2023-04-20T05:57:35.000Z,16.01
2023-04-20T06:02:36.000Z,16.31
2023-04-20T06:07:35.000Z,17.85
2023-04-20T06:12:36.000Z,16.95
2023-04-20T06:17:36.000Z,16.18
2023-04-20T06:22:36.000Z,16.28
2023-04-20T06:27:36.000Z,15.37
2023-04-20T06:32:36.000Z,14.86
2023-04-20T06:37:35.000Z,14.68
2023-04-20T06:42:36.000Z,14.95
2023-04-20T06:47:36.000Z,14.95
2023-04-20T06:52:36.000Z,13.33
2023-04-20T06:57:36.000Z,13.2
2023-04-20T07:02:35.000Z,11.96
2023-04-20T07:07:36.000Z,12.32
2023-04-20T07:12:36.000Z,12.11
2023-04-20T07:17:37.000Z,11.56
2023-04-20T07:22:35.000Z,10.53
2023-04-20T07:27:36.000Z,10.76
2023-04-20T07:32:36.000Z,10.75
2023-04-20T07:37:37.000Z,9.61
2023-04-20T07:42:36.000Z,8.88
2023-04-20T07:47:35.000Z,9.04
2023-04-20T07:52:36.000Z,8.5
2023-04-20T07:57:35.000Z,8.85
2023-04-20T08:02:35.000Z,8.85
2023-04-20T08:07:36.000Z,8.32
2023-04-20T08:12:36.000Z,7.74
2023-04-20T08:17:35.000Z,7.16
2023-04-20T08:22:36.000Z,8.34
2023-04-20T08:27:36.000Z,8
2023-04-20T08:32:37.000Z,7.7
2023-04-20T08:37:35.000Z,8.38
2023-04-20T08:42:36.000Z,8.83
2023-04-20T08:47:36.000Z,7.18
2023-04-20T08:52:36.000Z,6.92
2023-04-20T08:57:36.000Z,7.55
2023-04-20T09:02:36.000Z,8.04
2023-04-20T09:07:35.000Z,8.45
2023-04-20T09:12:36.000Z,9.93
2023-04-20T09:17:36.000Z,9.93
2023-04-20T09:22:35.000Z,8.81
2023-04-20T09:27:35.000Z,8.4
2023-04-20T09:32:36.000Z,7.95
2023-04-20T09:37:35.000Z,9.29
2023-04-20T09:42:35.000Z,8.87
2023-04-20T09:47:35.000Z,8.81
2023-04-20T09:52:36.000Z,9.11
2023-04-20T09:57:36.000Z,9.63
2023-04-20T10:02:36.000Z,8.59
2023-04-20T10:07:36.000Z,8.75
2023-04-20T10:12:36.000Z,7.8
2023-04-20T10:17:38.000Z,9.04
2023-04-20T10:22:35.000Z,9.89
2023-04-20T10:27:36.000Z,8.46
2023-04-20T10:32:36.000Z,8.46
2023-04-20T10:37:36.000Z,10.06
2023-04-20T10:42:35.000Z,10.21
2023-04-20T10:47:38.000Z,10.58
2023-04-20T10:52:36.000Z,9.89
2023-04-20T10:57:36.000Z,11.34
2023-04-20T11:02:36.000Z,11.55
2023-04-20T11:07:36.000Z,12.69
2023-04-20T11:12:35.000Z,11.57
2023-04-20T11:17:35.000Z,14.96
2023-04-20T11:22:36.000Z,12.36
2023-04-20T11:27:35.000Z,10.69
2023-04-20T11:32:36.000Z,10.54
2023-04-20T11:37:43.000Z,10.48
2023-04-20T11:42:35.000Z,10.48
2023-04-20T11:47:35.000Z,10.31
2023-04-20T11:52:35.000Z,10.18
2023-04-20T11:57:36.000Z,10.28
2023-04-20T12:02:36.000Z,10.27
2023-04-20T12:07:36.000Z,9.5
2023-04-20T12:12:36.000Z,9.7
2023-04-20T12:17:35.000Z,11.03
2023-04-20T12:22:35.000Z,12.57
2023-04-20T12:27:35.000Z,10.4
2023-04-20T12:32:36.000Z,10.09
2023-04-20T12:37:35.000Z,10.02
2023-04-20T12:42:35.000Z,11.2
2023-04-20T12:47:36.000Z,10.45
2023-04-20T12:52:36.000Z,10.45
2023-04-20T12:57:35.000Z,10.33
2023-04-20T13:02:35.000Z,10.25
2023-04-20T13:07:36.000Z,10.68
2023-04-20T13:12:35.000Z,10.45
2023-04-20T13:17:35.000Z,11.37
2023-04-20T13:22:36.000Z,10.79
2023-04-20T13:27:36.000Z,10.84
2023-04-20T13:32:36.000Z,10.09
2023-04-20T13:37:35.000Z,9.84
2023-04-20T13:42:35.000Z,11.07
2023-04-20T13:47:36.000Z,11.19
2023-04-20T13:52:36.000Z,12.18
2023-04-20T13:57:36.000Z,11.65
2023-04-20T14:02:35.000Z,11.16
2023-04-20T14:07:35.000Z,11.16
2023-04-20T14:12:36.000Z,11.18
2023-04-20T14:17:36.000Z,11.72
2023-04-20T14:22:35.000Z,11.8
2023-04-20T14:27:36.000Z,11.13
2023-04-20T14:32:35.000Z,12.48
2023-04-20T14:37:35.000Z,13.11
2023-04-20T14:42:35.000Z,13.34
2023-04-20T14:47:36.000Z,13.42
2023-04-20T14:52:35.000Z,16.67
2023-04-20T14:57:35.000Z,15.06
2023-04-20T15:02:36.000Z,12.66
2023-04-20T15:07:35.000Z,12.97
2023-04-20T15:12:36.000Z,21
2023-04-20T15:17:35.000Z,21
2023-04-20T15:22:35.000Z,20.24
2023-04-20T15:27:35.000Z,16.59
2023-04-20T15:32:36.000Z,17.48
2023-04-20T15:37:35.000Z,18.42
2023-04-20T15:42:36.000Z,19.72
2023-04-20T15:47:36.000Z,16.67
2023-04-20T15:52:36.000Z,17.99
2023-04-20T15:57:36.000Z,19.59
2023-04-20T16:02:35.000Z,19.1
2023-04-20T16:07:36.000Z,21.03
2023-04-20T16:12:35.000Z,19.78
2023-04-20T16:17:35.000Z,19.82
2023-04-20T16:22:35.000Z,20.85
2023-04-20T16:27:35.000Z,20.85
2023-04-20T16:32:35.000Z,19.87
2023-04-20T16:37:36.000Z,20.13
2023-04-20T16:42:36.000Z,19.86
2023-04-20T16:47:35.000Z,21.59
2023-04-20T16:52:35.000Z,22.47
2023-04-20T16:57:35.000Z,24.55
2023-04-20T17:02:36.000Z,26.98
2023-04-20T17:07:35.000Z,27.03
2023-04-20T17:12:36.000Z,23.29
2023-04-20T17:17:36.000Z,22.73
2023-04-20T17:22:36.000Z,23.79
2023-04-20T17:27:35.000Z,23.53
2023-04-20T17:32:35.000Z,22.1
2023-04-20T17:37:36.000Z,22.78
2023-04-20T17:42:35.000Z,22.78
2023-04-20T17:47:36.000Z,21.82
2023-04-20T17:52:35.000Z,20.49
2023-04-20T17:57:35.000Z,20.61
2023-04-20T18:02:36.000Z,20.5
2023-04-20T18:07:35.000Z,21.34
2023-04-20T18:12:35.000Z,21.06
2023-04-20T18:17:35.000Z,20.22
2023-04-20T18:22:36.000Z,19.98
2023-04-20T18:27:35.000Z,19.43
2023-04-20T18:32:36.000Z,19.74
2023-04-20T18:37:35.000Z,21.06
2023-04-20T18:42:36.000Z,21.2
2023-04-20T18:47:36.000Z,21.29
2023-04-20T18:52:36.000Z,21.29
2023-04-20T18:57:36.000Z,21.1
2023-04-20T19:02:36.000Z,20.98
2023-04-20T19:07:35.000Z,20.68
2023-04-20T19:12:35.000Z,19.9
2023-04-20T19:17:35.000Z,20.26
2023-04-20T19:22:35.000Z,20.15
2023-04-20T19:27:35.000Z,20.73
2023-04-20T19:32:36.000Z,21.07
2023-04-20T19:37:35.000Z,21.91
2023-04-20T19:42:36.000Z,23.9
2023-04-20T19:47:36.000Z,21.69
2023-04-20T19:52:35.000Z,23.11
2023-04-20T19:57:36.000Z,21.71
2023-04-20T20:02:37.000Z,21.28
2023-04-20T20:07:36.000Z,21.28
2023-04-20T20:12:35.000Z,21.47
2023-04-20T20:17:35.000Z,19.98
2023-04-20T20:22:35.000Z,20.11
2023-04-20T20:27:35.000Z,18.92
2023-04-20T20:32:36.000Z,20.68
2023-04-20T20:37:36.000Z,22.24
2023-04-20T20:42:35.000Z,21.93
2023-04-20T20:47:35.000Z,19.03
2023-04-20T20:52:36.000Z,19.43
2023-04-20T20:57:35.000Z,20.62
2023-04-20T21:02:35.000Z,20.75
2023-04-20T21:07:36.000Z,21.19
2023-04-20T21:12:35.000Z,19.51
2023-04-20T21:17:36.000Z,19.51
2023-04-20T21:22:35.000Z,20.72
2023-04-20T21:27:35.000Z,20.28
2023-04-20T21:32:36.000Z,19.44
2023-04-20T21:37:36.000Z,21.05
2023-04-20T21:42:36.000Z,23.43
2023-04-20T21:47:36.000Z,21.17
2023-04-20T21:52:35.000Z,21.05
2023-04-20T21:57:35.000Z,28.25
2023-04-20T22:02:36.000Z,24.42
2023-04-20T22:07:36.000Z,24.14
2023-04-20T22:12:49.000Z,24.08
2023-04-20T22:17:34.000Z,21.42
2023-04-20T22:22:35.000Z,22.7
2023-04-20T22:27:35.000Z,18.86
2023-04-20T22:32:35.000Z,18.86
2023-04-20T22:37:36.000Z,18.72
2023-04-20T22:42:35.000Z,20.33
2023-04-20T22:47:35.000Z,21.71
2023-04-20T22:52:35.000Z,23.03
2023-04-20T22:57:36.000Z,21.81
2023-04-20T23:02:36.000Z,22.8
2023-04-20T23:07:35.000Z,20.97
2023-04-20T23:12:36.000Z,18.59
2023-04-20T23:17:36.000Z,19.41
2023-04-20T23:22:35.000Z,19.18
2023-04-20T23:27:35.000Z,17.27
2023-04-20T23:32:35.000Z,17.46
2023-04-20T23:37:35.000Z,17.46
2023-04-20T23:42:36.000Z,16.73
2023-04-20T23:47:35.000Z,16.52
2023-04-20T23:52:35.000Z,16.43
2023-04-20T23:57:35.000Z,16.23
